Time,TemperatureF,DewpointF,PressureIn,WindDirection,WindDirectionDegrees,WindSpeedMPH,WindSpeedGustMPH,Humidity,HourlyPrecipIn,Conditions,Clouds,dailyrainin,SolarRadiationWatts/m^2,SoftwareType,DateUTC
2013-09-04 00:01:00,56.7,54.1,29.97,WSW,246,3.5,3.5,91,0.00,CLR,BKN,0.00,0.0,WeatherDisplay:10.37,2013-09-04 05:01:00,
2013-09-04 00:06:00,56.7,54.1,29.97,WSW,242,4.6,4.6,91,0.00,CLR,BKN,0.00,0.0,WeatherDisplay:10.37,2013-09-04 05:06:00,
2013-09-04 00:11:00,56.7,54.4,29.97,WSW,250,6.9,6.9,92,0.00,CLR,BKN,0.00,0.0,WeatherDisplay:10.37,2013-09-04 05:11:00,
2013-09-04 00:16:00,56.6,54.3,29.97,WSW,238,6.9,6.9,92,0.00,CLR,BKN,0.00,0.0,WeatherDisplay:10.37,2013-09-04 05:16:00,
2013-09-04 00:21:00,56.6,54.3,29.97,WSW,244,8.1,8.1,92,0.00,CLR,BKN,0.00,0.0,WeatherDisplay:10.37,2013-09-04 05:21:00,
2013-09-04 00:27:00,56.6,54.0,29.97,WSW,240,8.1,8.1,91,0.00,CLR,BKN,0.00,0.0,WeatherDisplay:10.37,2013-09-04 05:27:00,
2013-09-04 00:32:00,56.5,53.9,29.98,WSW,242,5.8,5.8,91,0.00,CLR,BKN,0.00,0.0,WeatherDisplay:10.37,2013-09-04 05:32:00,
2013-09-04 00:37:00,56.5,53.9,29.98,WSW,238,6.9,6.9,91,0.00,CLR,BKN,0.00,0.0,WeatherDisplay:10.37,2013-09-04 05:37:00,
2013-09-04 00:42:00,56.5,53.9,29.98,WSW,244,6.9,6.9,91,0.00,CLR,BKN,0.00,0.0,WeatherDisplay:10.37,2013-09-04 05:42:00,
2013-09-04 00:47:00,56.3,53.7,29.98,WSW,240,6.9,6.9,91,0.00,CLR,BKN,0.00,0.0,WeatherDisplay:10.37,2013-09-04 05:47:00,
2013-09-04 00:52:00,56.3,54.0,29.98,WSW,246,6.9,6.9,92,0.00,CLR,BKN,0.00,0.0,WeatherDisplay:10.37,2013-09-04 05:52:00,
2013-09-04 00:57:00,56.3,54.0,29.97,WSW,249,5.8,5.8,92,0.00,CLR,BKN,0.00,0.0,WeatherDisplay:10.37,2013-09-04 05:57:00,
2013-09-04 01:03:00,56.3,54.0,29.97,WSW,249,5.8,5.8,92,0.00,CLR,BKN,0.00,0.0,WeatherDisplay:10.37,2013-09-04 06:03:00,
2013-09-04 01:08:00,56.2,53.9,29.97,WSW,247,5.8,5.8,92,0.00,CLR,BKN,0.00,0.0,WeatherDisplay:10.37,2013-09-04 06:08:00,
2013-09-04 01:13:00,56.2,53.9,29.97,WSW,248,6.0,6.0,92,0.00,CLR,BKN,0.00,0.0,WeatherDisplay:10.37,2013-09-04 06:13:00,
2013-09-04 01:18:00,56.2,53.9,29.98,WSW,248,4.6,4.6,92,0.00,CLR,BKN,0.00,0.0,WeatherDisplay:10.37,2013-09-04 06:18:00,
2013-09-04 01:23:00,56.2,53.9,29.98,WSW,249,5.8,5.8,92,0.00,CLR,BKN,0.00,0.0,WeatherDisplay:10.37,2013-09-04 06:23:00,
2013-09-04 01:28:00,56.0,53.7,29.97,WSW,248,6.9,6.9,92,0.00,CLR,BKN,0.00,0.0,WeatherDisplay:10.37,2013-09-04 06:28:00,
2013-09-04 01:33:00,56.0,53.7,29.97,WSW,248,5.0,5.0,92,0.00,CLR,BKN,0.00,0.0,WeatherDisplay:10.37,2013-09-04 06:33:00,
2013-09-04 01:38:00,56.0,53.7,29.97,WSW,248,6.9,6.9,92,0.00,CLR,BKN,0.00,0.0,WeatherDisplay:10.37,2013-09-04 06:38:00,
2013-09-04 01:44:00,55.9,53.6,29.97,WSW,257,6.9,6.9,92,0.00,CLR,BKN,0.00,0.0,WeatherDisplay:10.37,2013-09-04 06:44:00,
2013-09-04 01:49:00,55.9,53.6,29.97,West,261,3.5,3.5,92,0.00,CLR,BKN,0.00,0.0,WeatherDisplay:10.37,2013-09-04 06:49:00,
2013-09-04 01:54:00,55.9,53.6,29.97,West,261,4.6,4.6,92,0.00,CLR,BKN,0.00,0.0,WeatherDisplay:10.37,2013-09-04 06:54:00,
2013-09-04 01:59:00,55.9,53.9,29.97,West,261,5.0,5.0,93,0.00,CLR,BKN,0.00,0.0,WeatherDisplay:10.37,2013-09-04 06:59:00,
2013-09-04 02:04:00,55.9,53.9,29.97,WSW,256,6.9,6.9,93,0.00,CLR,BKN,0.00,0.0,WeatherDisplay:10.37,2013-09-04 07:04:00,
2013-09-04 02:09:00,55.9,53.9,29.97,WSW,252,8.0,8.0,93,0.00,CLR,BKN,0.00,0.0,WeatherDisplay:10.37,2013-09-04 07:09:00,
2013-09-04 02:14:00,55.7,53.7,29.98,WSW,255,6.9,6.9,93,0.00,CLR,BKN,0.00,0.0,WeatherDisplay:10.37,2013-09-04 07:14:00,
2013-09-04 02:20:00,55.7,53.7,29.98,WSW,254,5.8,5.8,93,0.00,CLR,BKN,0.00,0.0,WeatherDisplay:10.37,2013-09-04 07:20:00,
2013-09-04 02:25:00,55.7,53.7,29.98,WSW,255,5.0,8.0,93,0.00,CLR,BKN,0.00,0.0,WeatherDisplay:10.37,2013-09-04 07:25:00,
2013-09-04 02:30:00,55.7,53.7,29.98,WSW,258,6.0,7.0,93,0.00,CLR,BKN,0.00,0.0,WeatherDisplay:10.37,2013-09-04 07:30:00,
2013-09-04 02:35:00,55.7,53.7,29.98,West,259,6.0,7.0,93,0.00,CLR,BKN,0.00,0.0,WeatherDisplay:10.37,2013-09-04 07:35:00,
2013-09-04 02:40:00,55.7,53.7,29.98,West,259,6.0,7.0,93,0.00,CLR,BKN,0.00,0.0,WeatherDisplay:10.37,2013-09-04 07:40:00,
2013-09-04 02:45:00,55.6,53.6,29.98,WSW,256,6.9,6.9,93,0.00,CLR,BKN,0.00,0.0,WeatherDisplay:10.37,2013-09-04 07:45:00,
2013-09-04 02:50:00,55.6,53.9,29.98,WSW,255,7.0,7.0,94,0.00,CLR,BKN,0.00,0.0,WeatherDisplay:10.37,2013-09-04 07:50:00,
2013-09-04 02:55:00,55.6,53.9,29.98,WSW,256,5.8,5.8,94,0.00,CLR,BKN,0.00,0.0,WeatherDisplay:10.37,2013-09-04 07:55:00,
2013-09-04 03:00:00,55.6,53.9,29.97,WSW,247,7.0,7.0,94,0.00,CLR,BKN,0.00,0.0,WeatherDisplay:10.37,2013-09-04 08:00:00,
2013-09-04 03:05:00,55.6,53.9,29.97,WSW,257,7.0,7.0,94,0.00,CLR,BKN,0.00,0.0,WeatherDisplay:10.37,2013-09-04 08:05:00,
2013-09-04 03:10:00,55.6,53.9,29.97,West,261,6.9,6.9,94,0.00,CLR,BKN,0.00,0.0,WeatherDisplay:10.37,2013-09-04 08:10:00,
2013-09-04 03:16:00,55.6,53.9,29.98,West,266,5.0,5.0,94,0.00,CLR,BKN,0.00,0.0,WeatherDisplay:10.37,2013-09-04 08:16:00,
2013-09-04 03:21:00,55.6,53.9,29.98,West,266,6.9,6.9,94,0.00,CLR,BKN,0.00,0.0,WeatherDisplay:10.37,2013-09-04 08:21:00,
2013-09-04 03:26:00,55.6,53.9,29.98,West,266,4.0,4.0,94,0.00,CLR,BKN,0.00,0.0,WeatherDisplay:10.37,2013-09-04 08:26:00,
2013-09-04 03:32:00,55.6,53.9,29.98,West,266,3.5,3.5,94,0.00,CLR,BKN,0.00,0.0,WeatherDisplay:10.37,2013-09-04 08:32:00,
2013-09-04 03:37:00,55.6,54.2,29.98,West,266,5.0,5.0,95,0.00,CLR,BKN,0.00,0.0,WeatherDisplay:10.37,2013-09-04 08:37:00,
2013-09-04 03:42:00,55.6,54.2,29.98,West,266,5.8,5.8,95,0.00,CLR,BKN,0.00,0.0,WeatherDisplay:10.37,2013-09-04 08:42:00,
2013-09-04 03:47:00,55.6,54.2,29.98,West,266,4.6,4.6,95,0.00,CLR,BKN,0.00,0.0,WeatherDisplay:10.37,2013-09-04 08:47:00,
2013-09-04 03:53:00,55.6,54.2,29.98,West,261,6.9,6.9,95,0.00,CLR,BKN,0.00,0.0,WeatherDisplay:10.37,2013-09-04 08:53:00,
2013-09-04 03:58:00,55.6,54.2,29.98,WSW,257,6.9,6.9,95,0.00,CLR,BKN,0.00,0.0,WeatherDisplay:10.37,2013-09-04 08:58:00,
2013-09-04 04:03:00,55.6,54.2,29.98,WSW,257,9.0,9.0,95,0.00,CLR,BKN,0.00,0.0,WeatherDisplay:10.37,2013-09-04 09:03:00,
2013-09-04 04:08:00,55.6,54.2,29.98,West,261,8.1,8.1,95,0.00,CLR,BKN,0.00,0.0,WeatherDisplay:10.37,2013-09-04 09:08:00,
2013-09-04 04:13:00,55.6,54.2,29.98,West,266,5.0,5.0,95,0.00,CLR,BKN,0.00,0.0,WeatherDisplay:10.37,2013-09-04 09:13:00,
2013-09-04 04:18:00,55.4,54.0,29.98,West,266,5.0,5.0,95,0.00,CLR,BKN,0.00,0.0,WeatherDisplay:10.37,2013-09-04 09:18:00,
2013-09-04 04:23:00,55.4,54.0,29.98,West,266,4.0,4.0,95,0.00,CLR,BKN,0.00,0.0,WeatherDisplay:10.37,2013-09-04 09:23:00,
2013-09-04 04:29:00,55.4,54.0,29.98,West,266,4.6,4.6,95,0.00,CLR,BKN,0.00,0.0,WeatherDisplay:10.37,2013-09-04 09:29:00,
2013-09-04 04:34:00,55.4,54.0,29.98,West,266,3.5,3.5,95,0.00,CLR,BKN,0.00,0.0,WeatherDisplay:10.37,2013-09-04 09:34:00,
2013-09-04 04:39:00,55.6,54.2,29.99,West,266,4.6,4.6,95,0.00,CLR,BKN,0.00,0.0,WeatherDisplay:10.37,2013-09-04 09:39:00,
2013-09-04 04:44:00,55.6,54.5,29.99,West,266,6.0,6.0,96,0.00,CLR,BKN,0.00,0.0,WeatherDisplay:10.37,2013-09-04 09:44:00,
2013-09-04 04:49:00,55.6,54.5,29.98,West,266,6.0,6.0,96,0.00,CLR,BKN,0.00,0.0,WeatherDisplay:10.37,2013-09-04 09:49:00,
2013-09-04 04:54:00,55.6,54.5,29.99,West,266,5.0,5.0,96,0.00,CLR,BKN,0.00,0.0,WeatherDisplay:10.37,2013-09-04 09:54:00,
2013-09-04 04:59:00,55.6,54.5,29.99,West,266,4.6,4.6,96,0.00,CLR,BKN,0.00,0.0,WeatherDisplay:10.37,2013-09-04 09:59:00,
2013-09-04 05:04:00,55.6,54.2,29.99,West,266,5.8,5.8,95,0.00,CLR,BKN,0.00,0.0,WeatherDisplay:10.37,2013-09-04 10:04:00,
2013-09-04 05:10:00,55.4,54.0,30.00,West,266,5.0,6.0,95,0.00,CLR,BKN,0.00,0.0,WeatherDisplay:10.37,2013-09-04 10:10:00,
2013-09-04 05:15:00,55.4,54.3,29.99,West,266,4.6,4.6,96,0.00,CLR,BKN,0.00,0.0,WeatherDisplay:10.37,2013-09-04 10:15:00,
2013-09-04 05:20:00,55.6,54.5,30.00,West,266,3.0,6.0,96,0.00,CLR,BKN,0.00,0.0,WeatherDisplay:10.37,2013-09-04 10:20:00,
2013-09-04 05:25:00,55.6,54.5,30.00,West,276,5.0,7.0,96,0.00,CLR,BKN,0.00,0.0,WeatherDisplay:10.37,2013-09-04 10:25:00,
2013-09-04 05:30:00,55.6,54.5,30.00,WNW,287,3.0,7.0,96,0.00,CLR,BKN,0.00,0.0,WeatherDisplay:10.37,2013-09-04 10:30:00,
2013-09-04 05:35:00,55.9,54.8,30.00,WNW,292,5.8,5.8,96,0.00,CLR,BKN,0.00,0.0,WeatherDisplay:10.37,2013-09-04 10:35:00,
2013-09-04 05:40:00,56.3,55.7,30.00,WNW,294,5.8,5.8,98,0.00,CLR,BKN,0.00,0.0,WeatherDisplay:10.37,2013-09-04 10:40:00,
2013-09-04 05:45:00,56.9,56.6,30.00,WNW,295,5.0,5.0,99,0.00,CLR,BKN,0.00,0.0,WeatherDisplay:10.37,2013-09-04 10:45:00,
2013-09-04 05:50:00,57.3,57.0,30.00,WNW,301,4.6,4.6,99,0.00,CLR,BKN,0.00,0.0,WeatherDisplay:10.37,2013-09-04 10:50:00,
2013-09-04 05:55:00,57.8,57.5,30.00,NW,311,6.9,6.9,99,0.00,CLR,BKN,0.00,0.0,WeatherDisplay:10.37,2013-09-04 10:55:00,
2013-09-04 06:00:00,58.1,57.8,30.01,NNW,329,5.0,5.0,99,0.00,CLR,BKN,0.00,0.0,WeatherDisplay:10.37,2013-09-04 11:00:00,
2013-09-04 06:05:00,58.6,58.3,30.01,NNW,337,10.0,10.0,99,0.00,CLR,BKN,0.00,0.0,WeatherDisplay:10.37,2013-09-04 11:05:00,
2013-09-04 06:11:00,58.7,58.4,30.01,NW,325,11.5,11.5,99,0.00,CLR,BKN,0.00,0.0,WeatherDisplay:10.37,2013-09-04 11:11:00,
2013-09-04 06:16:00,59.0,58.7,30.02,NNW,339,10.4,10.4,99,0.00,CLR,BKN,0.00,0.0,WeatherDisplay:10.37,2013-09-04 11:16:00,
2013-09-04 06:21:00,59.2,58.9,30.02,NNW,347,9.2,9.2,99,0.00,CLR,BKN,0.00,0.0,WeatherDisplay:10.37,2013-09-04 11:21:00,
2013-09-04 06:26:00,59.3,59.0,30.02,NNE,15,9.2,9.2,99,0.00,CLR,BKN,0.00,0.0,WeatherDisplay:10.37,2013-09-04 11:26:00,
2013-09-04 06:31:00,59.5,59.2,30.02,North,7,12.7,12.7,99,0.00,CLR,BKN,0.00,0.0,WeatherDisplay:10.37,2013-09-04 11:31:00,
2013-09-04 06:36:00,59.5,59.2,30.03,NNE,22,10.4,10.4,99,0.00,CLR,BKN,0.00,0.0,WeatherDisplay:10.37,2013-09-04 11:36:00,
2013-09-04 06:41:00,59.5,58.9,30.03,NE,36,6.9,6.9,98,0.00,CLR,BKN,0.00,0.0,WeatherDisplay:10.37,2013-09-04 11:41:00,
2013-09-04 06:46:00,59.5,58.9,30.03,NNE,20,9.2,9.2,98,0.00,CLR,BKN,0.00,0.0,WeatherDisplay:10.37,2013-09-04 11:46:00,
2013-09-04 06:52:00,59.5,58.9,30.03,NNE,25,7.0,7.0,98,0.00,CLR,BKN,0.00,0.0,WeatherDisplay:10.37,2013-09-04 11:52:00,
2013-09-04 06:57:00,59.5,58.6,30.03,NNE,22,6.9,6.9,97,0.00,CLR,BKN,0.00,0.0,WeatherDisplay:10.37,2013-09-04 11:57:00,
2013-09-04 07:02:00,59.5,58.6,30.04,NNE,18,9.2,9.2,97,0.00,CLR,BKN,0.00,0.0,WeatherDisplay:10.37,2013-09-04 12:02:00,
2013-09-04 07:07:00,59.5,58.4,30.04,NNE,18,11.5,11.5,96,0.00,CLR,BKN,0.00,0.0,WeatherDisplay:10.37,2013-09-04 12:07:00,
2013-09-04 07:12:00,59.2,58.1,30.04,North,358,10.4,10.4,96,0.00,CLR,BKN,0.00,0.0,WeatherDisplay:10.37,2013-09-04 12:12:00,
2013-09-04 07:17:00,59.0,57.0,30.04,NE,38,8.1,8.1,93,0.00,CLR,BKN,0.00,0.0,WeatherDisplay:10.37,2013-09-04 12:17:00,
2013-09-04 07:22:00,58.9,56.6,30.04,NE,38,10.4,10.4,92,0.00,CLR,BKN,0.00,0.0,WeatherDisplay:10.37,2013-09-04 12:22:00,
2013-09-04 07:28:00,58.9,56.3,30.05,NE,50,6.9,6.9,91,0.00,CLR,BKN,0.00,0.0,WeatherDisplay:10.37,2013-09-04 12:28:00,
2013-09-04 07:33:00,58.9,56.0,30.05,NNE,30,9.2,9.2,90,0.00,CLR,BKN,0.00,0.0,WeatherDisplay:10.37,2013-09-04 12:33:00,
2013-09-04 07:38:00,59.0,56.1,30.05,NE,45,8.1,8.1,90,0.00,CLR,BKN,0.00,0.0,WeatherDisplay:10.37,2013-09-04 12:38:00,
2013-09-04 07:43:00,58.9,55.7,30.05,NNE,30,8.1,8.1,89,0.00,CLR,BKN,0.00,0.0,WeatherDisplay:10.37,2013-09-04 12:43:00,
2013-09-04 07:48:00,58.9,55.4,30.06,NNE,28,11.5,11.5,88,0.00,CLR,BKN,0.00,0.0,WeatherDisplay:10.37,2013-09-04 12:48:00,
2013-09-04 07:53:00,58.9,55.0,30.06,NNE,26,14.0,14.0,87,0.00,CLR,BKN,0.00,0.0,WeatherDisplay:10.37,2013-09-04 12:53:00,
2013-09-04 07:58:00,58.9,55.0,30.06,NE,38,11.5,11.5,87,0.00,CLR,BKN,0.00,0.0,WeatherDisplay:10.37,2013-09-04 12:58:00,
2013-09-04 08:03:00,58.9,55.0,30.07,NE,39,9.2,9.2,87,0.00,OVC,BKN,0.00,0.0,WeatherDisplay:10.37,2013-09-04 13:03:00,
2013-09-04 08:09:00,58.9,54.7,30.07,ENE,64,9.2,9.2,86,0.00,OVC,BKN,0.00,0.0,WeatherDisplay:10.37,2013-09-04 13:09:00,
2013-09-04 08:14:00,58.9,54.7,30.07,NNE,22,9.0,9.0,86,0.00,OVC,BKN,0.00,0.0,WeatherDisplay:10.37,2013-09-04 13:14:00,
2013-09-04 08:19:00,58.9,54.7,30.07,NNE,33,9.2,9.2,86,0.00,OVC,BKN,0.00,0.0,WeatherDisplay:10.37,2013-09-04 13:19:00,
2013-09-04 08:24:00,58.9,54.7,30.07,NNE,18,10.4,10.4,86,0.00,OVC,BKN,0.00,0.0,WeatherDisplay:10.37,2013-09-04 13:24:00,
2013-09-04 08:29:00,58.9,54.4,30.07,ENE,61,6.0,6.0,85,0.00,OVC,BKN,0.00,0.0,WeatherDisplay:10.37,2013-09-04 13:29:00,
2013-09-04 08:34:00,58.9,54.7,30.08,NE,35,8.0,8.0,86,0.00,OVC,BKN,0.00,0.0,WeatherDisplay:10.37,2013-09-04 13:34:00,
2013-09-04 08:39:00,58.9,54.4,30.08,NNE,19,10.4,10.4,85,0.00,OVC,BKN,0.00,0.0,WeatherDisplay:10.37,2013-09-04 13:39:00,
2013-09-04 08:45:00,59.0,54.5,30.07,NNE,29,7.0,10.0,85,0.00,OVC,BKN,0.00,0.0,WeatherDisplay:10.37,2013-09-04 13:45:00,
2013-09-04 08:50:00,59.0,54.2,30.08,NNE,21,5.0,9.0,84,0.00,OVC,BKN,0.00,0.0,WeatherDisplay:10.37,2013-09-04 13:50:00,
2013-09-04 08:55:00,59.2,54.4,30.08,NNE,16,7.0,12.0,84,0.00,OVC,BKN,0.00,0.0,WeatherDisplay:10.37,2013-09-04 13:55:00,
2013-09-04 09:00:00,59.3,54.5,30.08,NNE,32,7.0,10.0,84,0.00,OVC,BKN,0.00,0.0,WeatherDisplay:10.37,2013-09-04 14:00:00,
2013-09-04 09:05:00,59.5,54.7,30.08,NNE,32,5.0,9.0,84,0.00,OVC,BKN,0.00,0.0,WeatherDisplay:10.37,2013-09-04 14:05:00,
2013-09-04 09:09:00,59.6,54.4,30.08,North,9,11.0,11.0,83,0.00,OVC,BKN,0.00,0.0,WeatherDisplay:10.37,2013-09-04 14:09:00,
2013-09-04 09:15:00,59.8,54.3,30.08,NNE,31,5.0,12.0,82,0.00,OVC,BKN,0.00,0.0,WeatherDisplay:10.37,2013-09-04 14:15:00,
2013-09-04 09:20:00,59.8,54.3,30.09,NNE,22,12.7,12.7,82,0.00,OVC,BKN,0.00,0.0,WeatherDisplay:10.37,2013-09-04 14:20:00,
2013-09-04 09:25:00,59.8,54.3,30.09,NNE,26,9.0,14.0,82,0.00,OVC,BKN,0.00,0.0,WeatherDisplay:10.37,2013-09-04 14:25:00,
2013-09-04 09:30:00,59.9,54.0,30.09,NNE,23,10.0,13.0,81,0.00,OVC,BKN,0.00,0.0,WeatherDisplay:10.37,2013-09-04 14:30:00,
2013-09-04 09:35:00,60.1,54.2,30.09,NNE,33,11.5,11.5,81,0.00,OVC,BKN,0.00,0.0,WeatherDisplay:10.37,2013-09-04 14:35:00,
2013-09-04 09:40:00,60.1,54.2,30.09,NNE,27,7.0,7.0,81,0.00,OVC,BKN,0.00,0.0,WeatherDisplay:10.37,2013-09-04 14:40:00,
2013-09-04 09:45:00,60.4,54.5,30.09,NE,36,11.5,11.5,81,0.00,OVC,BKN,0.00,0.0,WeatherDisplay:10.37,2013-09-04 14:45:00,
2013-09-04 09:50:00,60.5,54.3,30.10,North,7,10.0,10.0,80,0.00,OVC,BKN,0.00,0.0,WeatherDisplay:10.37,2013-09-04 14:50:00,
2013-09-04 09:55:00,60.9,55.0,30.10,NE,37,12.7,12.7,81,0.00,OVC,BKN,0.00,0.0,WeatherDisplay:10.37,2013-09-04 14:55:00,
2013-09-04 10:00:00,61.3,55.1,30.10,NE,50,11.5,11.5,80,0.00,OVC,BKN,0.00,0.0,WeatherDisplay:10.37,2013-09-04 15:00:00,
2013-09-04 10:05:00,61.5,55.3,30.10,NE,40,9.2,9.2,80,0.00,OVC,BKN,0.00,0.0,WeatherDisplay:10.37,2013-09-04 15:05:00,
2013-09-04 10:11:00,62.3,56.0,30.10,North,354,6.0,6.0,80,0.00,OVC,BKN,0.00,0.0,WeatherDisplay:10.37,2013-09-04 15:11:00,
2013-09-04 10:16:00,62.1,55.2,30.11,NNE,24,11.5,11.5,78,0.00,OVC,BKN,0.00,0.0,WeatherDisplay:10.37,2013-09-04 15:16:00,
2013-09-04 10:21:00,62.1,55.2,30.11,North,9,9.2,9.2,78,0.00,OVC,BKN,0.00,0.0,WeatherDisplay:10.37,2013-09-04 15:21:00,
2013-09-04 10:26:00,62.3,55.0,30.12,NE,48,10.4,10.4,77,0.00,OVC,BKN,0.00,0.0,WeatherDisplay:10.37,2013-09-04 15:26:00,
2013-09-04 10:31:00,61.8,55.2,30.12,East,82,9.2,9.2,79,0.00,OVC,BKN,0.00,0.0,WeatherDisplay:10.37,2013-09-04 15:31:00,
2013-09-04 10:36:00,61.8,55.2,30.12,ENE,60,11.5,11.5,79,0.00,OVC,BKN,0.00,0.0,WeatherDisplay:10.37,2013-09-04 15:36:00,
2013-09-04 10:41:00,61.8,55.9,30.12,NE,50,11.5,11.5,81,0.00,OVC,BKN,0.00,0.0,WeatherDisplay:10.37,2013-09-04 15:41:00,
2013-09-04 10:47:00,61.8,55.2,30.11,NNE,29,10.4,10.4,79,0.00,OVC,BKN,0.00,0.0,WeatherDisplay:10.37,2013-09-04 15:47:00,
2013-09-04 10:52:00,62.0,55.8,30.11,NE,42,6.0,6.0,80,0.00,OVC,BKN,0.00,0.0,WeatherDisplay:10.37,2013-09-04 15:52:00,
2013-09-04 10:57:00,62.4,55.4,30.11,North,352,8.1,8.1,78,0.00,OVC,BKN,0.00,0.0,WeatherDisplay:10.37,2013-09-04 15:57:00,
2013-09-04 11:02:00,62.3,55.7,30.11,NE,42,12.7,12.7,79,0.00,OVC,BKN,0.00,0.0,WeatherDisplay:10.37,2013-09-04 16:02:00,
2013-09-04 11:07:00,62.3,55.4,30.11,ENE,65,11.5,11.5,78,0.00,OVC,BKN,0.00,0.0,WeatherDisplay:10.37,2013-09-04 16:07:00,
2013-09-04 11:12:00,62.7,55.4,30.11,NNW,335,22.0,22.0,77,0.00,OVC,BKN,0.00,0.0,WeatherDisplay:10.37,2013-09-04 16:12:00,
2013-09-04 11:17:00,62.7,55.4,30.11,North,351,10.4,10.4,77,0.00,OVC,BKN,0.00,0.0,WeatherDisplay:10.37,2013-09-04 16:17:00,
2013-09-04 11:22:00,62.7,55.7,30.11,NNE,33,8.0,8.0,78,0.00,OVC,BKN,0.00,0.0,WeatherDisplay:10.37,2013-09-04 16:22:00,
2013-09-04 11:28:00,62.9,55.2,30.11,NNW,327,12.7,12.7,76,0.00,OVC,BKN,0.00,0.0,WeatherDisplay:10.37,2013-09-04 16:28:00,
2013-09-04 11:33:00,62.7,55.0,30.11,NNE,19,8.1,8.1,76,0.00,OVC,BKN,0.00,0.0,WeatherDisplay:10.37,2013-09-04 16:33:00,
2013-09-04 11:38:00,63.2,55.5,30.12,NE,42,9.2,9.2,76,0.00,OVC,BKN,0.00,0.0,WeatherDisplay:10.37,2013-09-04 16:38:00,
2013-09-04 11:43:00,63.5,55.8,30.12,North,360,9.2,9.2,76,0.00,OVC,BKN,0.00,0.0,WeatherDisplay:10.37,2013-09-04 16:43:00,
2013-09-04 11:48:00,63.5,55.4,30.12,NE,47,11.5,11.5,75,0.00,OVC,BKN,0.00,0.0,WeatherDisplay:10.37,2013-09-04 16:48:00,
2013-09-04 11:53:00,63.5,55.1,30.12,NNE,13,10.4,10.4,74,0.00,OVC,BKN,0.00,0.0,WeatherDisplay:10.37,2013-09-04 16:53:00,
2013-09-04 11:58:00,63.5,55.4,30.12,NNW,348,8.1,8.1,75,0.00,OVC,BKN,0.00,0.0,WeatherDisplay:10.37,2013-09-04 16:58:00,
2013-09-04 12:04:00,63.9,55.1,30.12,NNW,347,13.0,13.0,73,0.00,OVC,BKN,0.00,0.0,WeatherDisplay:10.37,2013-09-04 17:04:00,
2013-09-04 12:09:00,63.7,54.9,30.12,North,3,12.7,12.7,73,0.00,OVC,BKN,0.00,0.0,WeatherDisplay:10.37,2013-09-04 17:09:00,
2013-09-04 12:14:00,63.9,54.7,30.12,NNE,22,12.7,12.7,72,0.00,OVC,BKN,0.00,0.0,WeatherDisplay:10.37,2013-09-04 17:14:00,
2013-09-04 12:19:00,63.9,54.7,30.12,NNW,333,11.0,11.0,72,0.00,OVC,BKN,0.00,0.0,WeatherDisplay:10.37,2013-09-04 17:19:00,
2013-09-04 12:24:00,64.5,54.9,30.12,NNE,17,9.2,9.2,71,0.00,OVC,BKN,0.00,0.0,WeatherDisplay:10.37,2013-09-04 17:24:00,
2013-09-04 12:29:00,64.5,54.5,30.13,NNE,13,15.0,15.0,70,0.00,OVC,BKN,0.00,0.0,WeatherDisplay:10.37,2013-09-04 17:29:00,
2013-09-04 12:34:00,64.8,54.8,30.13,NNE,27,12.7,12.7,70,0.00,OVC,BKN,0.00,0.0,WeatherDisplay:10.37,2013-09-04 17:34:00,
2013-09-04 12:39:00,64.5,54.9,30.13,NE,38,10.0,10.0,71,0.00,OVC,BKN,0.00,0.0,WeatherDisplay:10.37,2013-09-04 17:39:00,
2013-09-04 12:45:00,64.5,54.5,30.13,NE,34,3.0,12.0,70,0.00,OVC,BKN,0.00,0.0,WeatherDisplay:10.37,2013-09-04 17:45:00,
2013-09-04 12:50:00,65.0,55.0,30.13,NE,34,8.1,8.1,70,0.00,OVC,BKN,0.00,0.0,WeatherDisplay:10.37,2013-09-04 17:50:00,
2013-09-04 12:55:00,64.7,54.7,30.13,NNE,33,9.0,14.0,70,0.00,OVC,BKN,0.00,0.0,WeatherDisplay:10.37,2013-09-04 17:55:00,
2013-09-04 13:00:00,64.7,55.1,30.12,NE,39,6.0,11.0,71,0.00,OVC,BKN,0.00,0.0,WeatherDisplay:10.37,2013-09-04 18:00:00,
2013-09-04 13:05:00,64.8,54.8,30.13,NE,48,6.0,10.0,70,0.00,OVC,BKN,0.00,0.0,WeatherDisplay:10.37,2013-09-04 18:05:00,
2013-09-04 13:10:00,64.5,54.5,30.13,NNE,21,7.0,12.0,70,0.00,OVC,BKN,0.00,0.0,WeatherDisplay:10.37,2013-09-04 18:10:00,
2013-09-04 13:15:00,64.3,53.9,30.12,NNE,24,8.0,12.0,69,0.00,OVC,BKN,0.00,0.0,WeatherDisplay:10.37,2013-09-04 18:15:00,
2013-09-04 13:20:00,64.7,53.9,30.12,NNE,27,8.0,12.0,68,0.00,OVC,BKN,0.00,0.0,WeatherDisplay:10.37,2013-09-04 18:20:00,
2013-09-04 13:25:00,64.3,53.5,30.12,NE,41,5.0,5.0,68,0.00,OVC,BKN,0.00,0.0,WeatherDisplay:10.37,2013-09-04 18:25:00,
2013-09-04 13:30:00,64.5,54.5,30.12,NNE,21,9.2,9.2,70,0.00,OVC,BKN,0.00,0.0,WeatherDisplay:10.37,2013-09-04 18:30:00,
2013-09-04 13:35:00,64.7,55.1,30.12,NE,52,4.6,4.6,71,0.00,OVC,BKN,0.00,0.0,WeatherDisplay:10.37,2013-09-04 18:35:00,
2013-09-04 13:40:00,65.0,55.8,30.12,ENE,59,3.5,3.5,72,0.00,OVC,BKN,0.00,0.0,WeatherDisplay:10.37,2013-09-04 18:40:00,
2013-09-04 13:45:00,65.0,54.2,30.11,ENE,69,4.0,4.0,68,0.00,OVC,BKN,0.00,0.0,WeatherDisplay:10.37,2013-09-04 18:45:00,
2013-09-04 13:50:00,65.0,54.2,30.11,NW,321,8.1,8.1,68,0.00,OVC,BKN,0.00,0.0,WeatherDisplay:10.37,2013-09-04 18:50:00,
2013-09-04 13:55:00,65.6,55.2,30.11,WNW,302,6.0,6.0,69,0.00,OVC,BKN,0.00,0.0,WeatherDisplay:10.37,2013-09-04 18:55:00,
2013-09-04 14:00:00,65.5,54.7,30.11,NNW,346,4.6,4.6,68,0.00,OVC,BKN,0.00,0.0,WeatherDisplay:10.37,2013-09-04 19:00:00,
2013-09-04 14:06:00,65.6,53.9,30.11,NE,42,9.2,9.2,66,0.00,OVC,BKN,0.00,0.0,WeatherDisplay:10.37,2013-09-04 19:06:00,
2013-09-04 14:11:00,66.1,55.2,30.11,NNW,334,5.0,5.0,68,0.00,OVC,BKN,0.00,0.0,WeatherDisplay:10.37,2013-09-04 19:11:00,
2013-09-04 14:16:00,66.3,53.8,30.11,NNW,337,6.9,6.9,64,0.00,OVC,BKN,0.00,0.0,WeatherDisplay:10.37,2013-09-04 19:16:00,
2013-09-04 14:21:00,66.3,54.6,30.11,NNW,337,10.0,10.0,66,0.00,OVC,BKN,0.00,0.0,WeatherDisplay:10.37,2013-09-04 19:21:00,
2013-09-04 14:26:00,66.1,53.6,30.11,NNW,337,8.1,8.1,64,0.00,OVC,BKN,0.00,0.0,WeatherDisplay:10.37,2013-09-04 19:26:00,
2013-09-04 14:31:00,66.1,53.6,30.11,NNW,346,8.1,8.1,64,0.00,OVC,BKN,0.00,0.0,WeatherDisplay:10.37,2013-09-04 19:31:00,
2013-09-04 14:36:00,66.3,54.6,30.11,North,11,6.9,6.9,66,0.00,OVC,BKN,0.00,0.0,WeatherDisplay:10.37,2013-09-04 19:36:00,
2013-09-04 14:42:00,66.3,54.2,30.11,NNE,23,7.0,7.0,65,0.00,OVC,BKN,0.00,0.0,WeatherDisplay:10.37,2013-09-04 19:42:00,
2013-09-04 14:47:00,66.6,54.0,30.11,WNW,300,6.9,6.9,64,0.00,OVC,BKN,0.00,0.0,WeatherDisplay:10.37,2013-09-04 19:47:00,
2013-09-04 14:52:00,66.6,53.2,30.11,NNW,347,10.0,10.0,62,0.00,OVC,BKN,0.00,0.0,WeatherDisplay:10.37,2013-09-04 19:52:00,
2013-09-04 14:57:00,66.4,50.7,30.11,North,353,12.7,12.7,57,0.00,OVC,BKN,0.00,0.0,WeatherDisplay:10.37,2013-09-04 19:57:00,
2013-09-04 15:02:00,66.4,53.4,30.11,NNW,342,4.6,4.6,63,0.00,OVC,BKN,0.00,0.0,WeatherDisplay:10.37,2013-09-04 20:02:00,
2013-09-04 15:07:00,66.8,54.7,30.11,WNW,294,10.4,10.4,65,0.00,OVC,BKN,0.00,0.0,WeatherDisplay:10.37,2013-09-04 20:07:00,
2013-09-04 15:12:00,66.8,53.8,30.11,NW,319,5.8,5.8,63,0.00,OVC,BKN,0.00,0.0,WeatherDisplay:10.37,2013-09-04 20:12:00,
2013-09-04 15:17:00,66.6,53.6,30.11,NNE,23,11.5,11.5,63,0.00,OVC,BKN,0.00,0.0,WeatherDisplay:10.37,2013-09-04 20:17:00,
2013-09-04 15:23:00,66.1,53.1,30.11,NNE,19,8.1,8.1,63,0.00,OVC,BKN,0.00,0.0,WeatherDisplay:10.37,2013-09-04 20:23:00,
2013-09-04 15:28:00,66.1,53.1,30.11,NNE,21,9.0,9.0,63,0.00,OVC,BKN,0.00,0.0,WeatherDisplay:10.37,2013-09-04 20:28:00,
2013-09-04 15:33:00,66.0,52.6,30.11,NE,49,6.9,6.9,62,0.00,OVC,BKN,0.00,0.0,WeatherDisplay:10.37,2013-09-04 20:33:00,
2013-09-04 15:38:00,66.1,53.1,30.11,ENE,68,9.2,9.2,63,0.00,OVC,BKN,0.00,0.0,WeatherDisplay:10.37,2013-09-04 20:38:00,
2013-09-04 15:43:00,66.4,53.0,30.11,NNW,344,5.8,5.8,62,0.00,OVC,BKN,0.00,0.0,WeatherDisplay:10.37,2013-09-04 20:43:00,
2013-09-04 15:48:00,66.8,52.5,30.11,NNE,16,10.4,10.4,60,0.00,OVC,BKN,0.00,0.0,WeatherDisplay:10.37,2013-09-04 20:48:00,
2013-09-04 15:53:00,66.6,52.7,30.11,North,1,6.0,6.0,61,0.00,OVC,BKN,0.00,0.0,WeatherDisplay:10.37,2013-09-04 20:53:00,
2013-09-04 15:59:00,66.8,54.2,30.11,NNW,346,8.0,8.0,64,0.00,OVC,BKN,0.00,0.0,WeatherDisplay:10.37,2013-09-04 20:59:00,
2013-09-04 16:04:00,66.8,52.9,30.11,NNE,25,10.4,10.4,61,0.00,OVC,BKN,0.00,0.0,WeatherDisplay:10.37,2013-09-04 21:04:00,
2013-09-04 16:09:00,66.6,52.7,30.11,NNE,21,7.0,7.0,61,0.00,OVC,BKN,0.00,0.0,WeatherDisplay:10.37,2013-09-04 21:09:00,
2013-09-04 16:14:00,66.8,51.5,30.11,NE,34,7.0,7.0,58,0.00,OVC,BKN,0.00,0.0,WeatherDisplay:10.37,2013-09-04 21:14:00,
2013-09-04 16:19:00,66.8,50.6,30.11,North,355,6.9,6.9,56,0.00,OVC,BKN,0.00,0.0,WeatherDisplay:10.37,2013-09-04 21:19:00,
2013-09-04 16:24:00,66.6,51.8,30.11,NE,54,3.5,3.5,59,0.00,OVC,BKN,0.00,0.0,WeatherDisplay:10.37,2013-09-04 21:24:00,
2013-09-04 16:29:00,66.8,55.1,30.11,NE,44,5.0,5.0,66,0.00,OVC,BKN,0.00,0.0,WeatherDisplay:10.37,2013-09-04 21:29:00,
2013-09-04 16:34:00,66.8,52.9,30.11,NE,42,6.9,6.9,61,0.00,OVC,BKN,0.00,0.0,WeatherDisplay:10.37,2013-09-04 21:34:00,
2013-09-04 16:40:00,66.4,52.1,30.11,NNE,26,2.0,8.0,60,0.00,OVC,BKN,0.00,0.0,WeatherDisplay:10.37,2013-09-04 21:40:00,
2013-09-04 16:45:00,66.1,52.3,30.11,NNE,29,3.0,8.0,61,0.00,OVC,BKN,0.00,0.0,WeatherDisplay:10.37,2013-09-04 21:45:00,
2013-09-04 16:50:00,66.0,54.7,30.11,NNE,23,3.0,7.0,67,0.00,OVC,BKN,0.00,0.0,WeatherDisplay:10.37,2013-09-04 21:50:00,
2013-09-04 16:55:00,66.0,53.0,30.11,NE,42,8.0,8.0,63,0.00,OVC,BKN,0.00,0.0,WeatherDisplay:10.37,2013-09-04 21:55:00,
2013-09-04 17:00:00,65.6,53.1,30.12,NNE,32,6.0,9.0,64,0.00,OVC,BKN,0.00,0.0,WeatherDisplay:10.37,2013-09-04 22:00:00,
2013-09-04 17:05:00,65.0,51.7,30.12,NE,38,6.0,10.0,62,0.00,OVC,BKN,0.00,0.0,WeatherDisplay:10.37,2013-09-04 22:05:00,
2013-09-04 17:10:00,65.0,52.1,30.12,NNE,25,5.0,7.0,63,0.00,OVC,BKN,0.00,0.0,WeatherDisplay:10.37,2013-09-04 22:10:00,
2013-09-04 17:15:00,64.8,52.3,30.11,NE,41,5.8,5.8,64,0.00,OVC,BKN,0.00,0.0,WeatherDisplay:10.37,2013-09-04 22:15:00,
2013-09-04 17:20:00,64.7,51.8,30.11,NNE,13,6.9,6.9,63,0.00,OVC,BKN,0.00,0.0,WeatherDisplay:10.37,2013-09-04 22:20:00,
2013-09-04 17:25:00,64.5,51.6,30.11,NE,42,5.8,5.8,63,0.00,OVC,BKN,0.00,0.0,WeatherDisplay:10.37,2013-09-04 22:25:00,
2013-09-04 17:30:00,64.5,50.7,30.11,NNE,13,4.6,4.6,61,0.00,OVC,BKN,0.00,0.0,WeatherDisplay:10.37,2013-09-04 22:30:00,
2013-09-04 17:35:00,64.5,50.7,30.12,NNE,27,8.1,8.1,61,0.00,OVC,BKN,0.00,0.0,WeatherDisplay:10.37,2013-09-04 22:35:00,
2013-09-04 17:40:00,64.3,49.2,30.12,NNE,19,5.8,5.8,58,0.00,OVC,BKN,0.00,0.0,WeatherDisplay:10.37,2013-09-04 22:40:00,
2013-09-04 17:45:00,64.2,51.8,30.12,ENE,62,5.8,5.8,64,0.00,OVC,BKN,0.00,0.0,WeatherDisplay:10.37,2013-09-04 22:45:00,
2013-09-04 17:51:00,63.9,51.5,30.12,NE,38,4.6,4.6,64,0.00,OVC,BKN,0.00,0.0,WeatherDisplay:10.37,2013-09-04 22:51:00,
2013-09-04 17:56:00,63.7,51.3,30.12,NE,43,6.9,6.9,64,0.00,OVC,BKN,0.00,0.0,WeatherDisplay:10.37,2013-09-04 22:56:00,
2013-09-04 18:01:00,63.9,50.6,30.12,NNE,27,6.9,6.9,62,0.00,,BKN,0.00,0.0,WeatherDisplay:10.37,2013-09-04 23:01:00,
2013-09-04 18:06:00,63.5,50.7,30.12,NE,35,3.5,3.5,63,0.00,,BKN,0.00,0.0,WeatherDisplay:10.37,2013-09-04 23:06:00,
2013-09-04 18:11:00,63.4,51.0,30.12,NNE,32,4.6,4.6,64,0.00,,BKN,0.00,0.0,WeatherDisplay:10.37,2013-09-04 23:11:00,
2013-09-04 18:16:00,63.1,51.1,30.12,NNE,31,4.6,4.6,65,0.00,,BKN,0.00,0.0,WeatherDisplay:10.37,2013-09-04 23:16:00,
2013-09-04 18:21:00,63.1,51.6,30.12,NNE,33,3.5,3.5,66,0.00,,BKN,0.00,0.0,WeatherDisplay:10.37,2013-09-04 23:21:00,
2013-09-04 18:26:00,62.9,51.8,30.12,NNE,32,3.5,3.5,67,0.00,,BKN,0.00,0.0,WeatherDisplay:10.37,2013-09-04 23:26:00,
2013-09-04 18:32:00,62.6,52.3,30.12,NNE,32,4.6,4.6,69,0.00,,BKN,0.00,0.0,WeatherDisplay:10.37,2013-09-04 23:32:00,
2013-09-04 18:37:00,62.3,53.2,30.12,NNE,32,3.5,3.5,72,0.00,,BKN,0.00,0.0,WeatherDisplay:10.37,2013-09-04 23:37:00,
2013-09-04 18:42:00,62.1,52.6,30.12,NNE,33,3.5,3.5,71,0.00,,BKN,0.00,0.0,WeatherDisplay:10.37,2013-09-04 23:42:00,
2013-09-04 18:47:00,61.6,54.0,30.12,NNE,33,2.3,2.3,76,0.00,,BKN,0.00,0.0,WeatherDisplay:10.37,2013-09-04 23:47:00,
2013-09-04 18:52:00,61.2,53.9,30.12,NNE,33,2.3,2.3,77,0.00,,BKN,0.00,0.0,WeatherDisplay:10.37,2013-09-04 23:52:00,
2013-09-04 18:57:00,60.2,53.7,30.12,NNE,33,2.3,2.3,79,0.00,,BKN,0.00,0.0,WeatherDisplay:10.37,2013-09-04 23:57:00,
2013-09-04 19:02:00,59.6,53.8,30.12,NNE,33,2.3,2.3,81,0.00,,BKN,0.00,0.0,WeatherDisplay:10.37,2013-09-05 00:02:00,
2013-09-04 19:08:00,58.9,54.1,30.12,NNE,33,1.2,1.2,84,0.00,,BKN,0.00,0.0,WeatherDisplay:10.37,2013-09-05 00:08:00,
2013-09-04 19:13:00,58.4,53.6,30.12,NNE,33,2.3,2.3,84,0.00,,BKN,0.00,0.0,WeatherDisplay:10.37,2013-09-05 00:13:00,
2013-09-04 19:18:00,58.1,53.6,30.12,NNE,33,1.2,0.0,85,0.00,,BKN,0.00,0.0,WeatherDisplay:10.37,2013-09-05 00:18:00,
2013-09-04 19:23:00,58.1,53.9,30.12,NNE,33,1.2,1.2,86,0.00,,BKN,0.00,0.0,WeatherDisplay:10.37,2013-09-05 00:23:00,
2013-09-04 19:28:00,57.8,53.6,30.12,NNE,33,2.3,2.3,86,0.00,,BKN,0.00,0.0,WeatherDisplay:10.37,2013-09-05 00:28:00,
2013-09-04 19:33:00,57.3,53.5,30.12,NNE,33,2.3,2.3,87,0.00,,BKN,0.00,0.0,WeatherDisplay:10.37,2013-09-05 00:33:00,
2013-09-04 19:38:00,56.9,53.4,30.12,NNE,33,3.5,3.5,88,0.00,,BKN,0.00,0.0,WeatherDisplay:10.37,2013-09-05 00:38:00,
2013-09-04 19:43:00,56.3,53.1,30.12,NNE,33,3.5,3.5,89,0.00,,BKN,0.00,0.0,WeatherDisplay:10.37,2013-09-05 00:43:00,
2013-09-04 19:49:00,56.0,53.1,30.12,NNE,33,1.2,0.0,90,0.00,,BKN,0.00,0.0,WeatherDisplay:10.37,2013-09-05 00:49:00,
2013-09-04 19:54:00,55.7,53.1,30.12,NNE,33,0.0,0.0,91,0.00,,BKN,0.00,0.0,WeatherDisplay:10.37,2013-09-05 00:54:00,
2013-09-04 19:59:00,55.4,52.8,30.12,NNE,33,2.3,2.3,91,0.00,,BKN,0.00,0.0,WeatherDisplay:10.37,2013-09-05 00:59:00,
2013-09-04 20:04:00,55.1,52.8,30.12,NNE,33,0.0,0.0,92,0.00,,BKN,0.00,0.0,WeatherDisplay:10.37,2013-09-05 01:04:00,
2013-09-04 20:09:00,55.0,52.7,30.12,NNE,33,0.0,0.0,92,0.00,,BKN,0.00,0.0,WeatherDisplay:10.37,2013-09-05 01:09:00,
2013-09-04 20:14:00,54.7,52.4,30.13,NNE,33,0.0,0.0,92,0.00,,BKN,0.00,0.0,WeatherDisplay:10.37,2013-09-05 01:14:00,
2013-09-04 20:19:00,54.7,52.7,30.13,NNE,33,0.0,0.0,93,0.00,,BKN,0.00,0.0,WeatherDisplay:10.37,2013-09-05 01:19:00,
2013-09-04 20:24:00,54.7,53.0,30.13,NNE,33,0.0,0.0,94,0.00,,BKN,0.00,0.0,WeatherDisplay:10.37,2013-09-05 01:24:00,
2013-09-04 20:30:00,54.5,52.5,30.13,NNE,33,0.0,1.0,93,0.00,,BKN,0.00,0.0,WeatherDisplay:10.37,2013-09-05 01:30:00,
2013-09-04 20:35:00,54.1,52.4,30.14,NNE,33,0.0,0.0,94,0.00,,BKN,0.00,0.0,WeatherDisplay:10.37,2013-09-05 01:35:00,
2013-09-04 20:40:00,53.8,52.1,30.14,NNE,33,0.0,0.0,94,0.00,,BKN,0.00,0.0,WeatherDisplay:10.37,2013-09-05 01:40:00,
2013-09-04 20:45:00,53.5,51.8,30.14,NNE,33,0.0,0.0,94,0.00,,BKN,0.00,0.0,WeatherDisplay:10.37,2013-09-05 01:45:00,
2013-09-04 20:50:00,53.2,51.5,30.14,NNE,33,0.0,0.0,94,0.00,,BKN,0.00,0.0,WeatherDisplay:10.37,2013-09-05 01:50:00,
2013-09-04 20:55:00,53.2,51.8,30.14,NNE,33,2.3,2.3,95,0.00,,BKN,0.00,0.0,WeatherDisplay:10.37,2013-09-05 01:55:00,
2013-09-04 21:00:00,53.1,51.7,30.14,NNE,33,1.2,0.0,95,0.00,,BKN,0.00,0.0,WeatherDisplay:10.37,2013-09-05 02:00:00,
2013-09-04 21:05:00,52.9,51.5,30.14,NNE,33,0.0,0.0,95,0.00,,BKN,0.00,0.0,WeatherDisplay:10.37,2013-09-05 02:05:00,
2013-09-04 21:10:00,52.6,51.2,30.14,NNE,33,1.2,1.2,95,0.00,,BKN,0.00,0.0,WeatherDisplay:10.37,2013-09-05 02:10:00,
2013-09-04 21:16:00,52.5,51.1,30.14,NNE,33,0.0,0.0,95,0.00,,BKN,0.00,0.0,WeatherDisplay:10.37,2013-09-05 02:16:00,
2013-09-04 21:21:00,52.3,50.9,30.14,NNE,33,1.2,1.2,95,0.00,,BKN,0.00,0.0,WeatherDisplay:10.37,2013-09-05 02:21:00,
2013-09-04 21:26:00,52.2,50.8,30.14,NNE,33,1.2,0.0,95,0.00,,BKN,0.00,0.0,WeatherDisplay:10.37,2013-09-05 02:26:00,
2013-09-04 21:31:00,52.2,50.8,30.15,NNE,33,0.0,0.0,95,0.00,,BKN,0.00,0.0,WeatherDisplay:10.37,2013-09-05 02:31:00,
2013-09-04 21:36:00,52.2,50.8,30.14,NNE,33,0.0,0.0,95,0.00,,BKN,0.00,0.0,WeatherDisplay:10.37,2013-09-05 02:36:00,
2013-09-04 21:41:00,52.2,50.8,30.14,NNE,33,0.0,0.0,95,0.00,,BKN,0.00,0.0,WeatherDisplay:10.37,2013-09-05 02:41:00,
2013-09-04 21:46:00,52.2,50.5,30.15,NNE,33,0.0,0.0,94,0.00,,BKN,0.00,0.0,WeatherDisplay:10.37,2013-09-05 02:46:00,
2013-09-04 21:52:00,52.2,50.5,30.15,NNE,33,0.0,0.0,94,0.00,,BKN,0.00,0.0,WeatherDisplay:10.37,2013-09-05 02:52:00,
2013-09-04 21:57:00,52.0,50.3,30.15,NNE,33,0.0,0.0,94,0.00,,BKN,0.00,0.0,WeatherDisplay:10.37,2013-09-05 02:57:00,
2013-09-04 22:02:00,52.0,50.3,30.15,NNE,33,0.0,0.0,94,0.00,,BKN,0.00,0.0,WeatherDisplay:10.37,2013-09-05 03:02:00,
2013-09-04 22:07:00,52.0,50.0,30.15,NNE,33,0.0,0.0,93,0.00,,BKN,0.00,0.0,WeatherDisplay:10.37,2013-09-05 03:07:00,
2013-09-04 22:12:00,52.0,50.0,30.16,NNE,33,0.0,0.0,93,0.00,,BKN,0.00,0.0,WeatherDisplay:10.37,2013-09-05 03:12:00,
2013-09-04 22:17:00,51.9,49.9,30.16,NNE,33,0.0,0.0,93,0.00,,BKN,0.00,0.0,WeatherDisplay:10.37,2013-09-05 03:17:00,
2013-09-04 22:22:00,51.9,49.9,30.16,NNE,33,0.0,0.0,93,0.00,,BKN,0.00,0.0,WeatherDisplay:10.37,2013-09-05 03:22:00,
2013-09-04 22:27:00,51.7,49.7,30.16,NNE,33,0.0,0.0,93,0.00,,BKN,0.00,0.0,WeatherDisplay:10.37,2013-09-05 03:27:00,
2013-09-04 22:33:00,51.7,49.7,30.16,NNE,33,0.0,0.0,93,0.00,,BKN,0.00,0.0,WeatherDisplay:10.37,2013-09-05 03:33:00,
2013-09-04 22:38:00,51.6,49.6,30.16,NNE,33,0.0,0.0,93,0.00,,BKN,0.00,0.0,WeatherDisplay:10.37,2013-09-05 03:38:00,
2013-09-04 22:43:00,51.4,49.2,30.16,NNE,33,3.5,3.5,92,0.00,,BKN,0.00,0.0,WeatherDisplay:10.37,2013-09-05 03:43:00,
2013-09-04 22:48:00,51.3,49.1,30.17,NNE,33,3.5,3.5,92,0.00,,BKN,0.00,0.0,WeatherDisplay:10.37,2013-09-05 03:48:00,
2013-09-04 22:53:00,51.1,48.9,30.17,NNE,33,0.0,0.0,92,0.00,,BKN,0.00,0.0,WeatherDisplay:10.37,2013-09-05 03:53:00,
2013-09-04 22:58:00,51.1,48.9,30.16,NNE,33,3.0,3.0,92,0.00,,BKN,0.00,0.0,WeatherDisplay:10.37,2013-09-05 03:58:00,
2013-09-04 23:01:00,51.0,48.8,30.16,NNE,33,4.0,4.0,92,0.00,,BKN,0.00,0.0,WeatherDisplay:10.37,2013-09-05 04:01:00,
2013-09-04 23:02:00,51.0,48.8,30.17,NNE,33,3.5,3.5,92,0.00,,BKN,0.00,0.0,WeatherDisplay:10.37,2013-09-05 04:02:00,
2013-09-04 23:05:00,50.8,48.6,30.17,NNE,33,3.5,3.5,92,0.00,,BKN,0.00,0.0,WeatherDisplay:10.37,2013-09-05 04:05:00,
2013-09-04 23:10:00,50.8,48.6,30.17,NNE,33,4.0,4.0,92,0.00,,BKN,0.00,0.0,WeatherDisplay:10.37,2013-09-05 04:10:00,
2013-09-04 23:15:00,50.7,48.5,30.17,NNE,33,3.5,3.5,92,0.00,,BKN,0.00,0.0,WeatherDisplay:10.37,2013-09-05 04:15:00,
2013-09-04 23:20:00,50.5,48.3,30.17,NNE,33,1.2,1.2,92,0.00,,BKN,0.00,0.0,WeatherDisplay:10.37,2013-09-05 04:20:00,
2013-09-04 23:26:00,50.5,48.3,30.17,NNE,33,1.2,0.0,92,0.00,,BKN,0.00,0.0,WeatherDisplay:10.37,2013-09-05 04:26:00,
2013-09-04 23:31:00,50.4,48.2,30.17,NNE,33,2.3,2.3,92,0.00,,BKN,0.00,0.0,WeatherDisplay:10.37,2013-09-05 04:31:00,
2013-09-04 23:36:00,50.4,48.2,30.17,NNE,33,1.2,1.2,92,0.00,,BKN,0.00,0.0,WeatherDisplay:10.37,2013-09-05 04:36:00,
2013-09-04 23:41:00,50.2,48.0,30.17,NNE,33,0.0,0.0,92,0.00,,BKN,0.00,0.0,WeatherDisplay:10.37,2013-09-05 04:41:00,
2013-09-04 23:46:00,50.1,47.9,30.17,NNE,33,0.0,0.0,92,0.00,,BKN,0.00,0.0,WeatherDisplay:10.37,2013-09-05 04:46:00,
2013-09-04 23:51:00,49.9,47.7,30.17,NNE,33,0.0,0.0,92,0.00,,BKN,0.00,0.0,WeatherDisplay:10.37,2013-09-05 04:51:00,
2013-09-04 23:56:00,49.8,47.6,30.17,NNE,33,0.0,0.0,92,0.00,,BKN,0.00,0.0,WeatherDisplay:10.37,2013-09-05 04:56:00,